sensor_id;sensor_type;location;lat;lon;timestamp;P1;durP1;ratioP1;P2;durP2;ratioP2
47523;SDS011;33253;42.144;25.884;2023-11-19T00:01:11;0.32;;;0.32;;
47523;SDS011;33253;42.144;25.884;2023-11-19T00:03:37;0.55;;;0.40;;
47523;SDS011;33253;42.144;25.884;2023-11-19T00:06:02;0.60;;;0.50;;
47523;SDS011;33253;42.144;25.884;2023-11-19T00:08:29;3.28;;;0.47;;
47523;SDS011;33253;42.144;25.884;2023-11-19T00:10:55;0.55;;;0.20;;
47523;SDS011;33253;42.144;25.884;2023-11-19T00:13:20;0.43;;;0.40;;
47523;SDS011;33253;42.144;25.884;2023-11-19T00:15:46;0.32;;;0.30;;
47523;SDS011;33253;42.144;25.884;2023-11-19T00:18:12;0.50;;;0.40;;
47523;SDS011;33253;42.144;25.884;2023-11-19T00:20:39;0.20;;;0.20;;
47523;SDS011;33253;42.144;25.884;2023-11-19T00:23:04;0.40;;;0.40;;
47523;SDS011;33253;42.144;25.884;2023-11-19T00:25:30;0.28;;;0.28;;
47523;SDS011;33253;42.144;25.884;2023-11-19T00:27:55;2.28;;;0.40;;
47523;SDS011;33253;42.144;25.884;2023-11-19T00:30:21;0.20;;;0.20;;
47523;SDS011;33253;42.144;25.884;2023-11-19T00:32:47;0.52;;;0.40;;
47523;SDS011;33253;42.144;25.884;2023-11-19T00:35:13;0.93;;;0.60;;
47523;SDS011;33253;42.144;25.884;2023-11-19T00:37:41;0.30;;;0.30;;
47523;SDS011;33253;42.144;25.884;2023-11-19T00:40:11;0.80;;;0.57;;
47523;SDS011;33253;42.144;25.884;2023-11-19T00:42:37;6.32;;;0.40;;
47523;SDS011;33253;42.144;25.884;2023-11-19T00:45:02;0.57;;;0.57;;
47523;SDS011;33253;42.144;25.884;2023-11-19T00:47:28;0.60;;;0.47;;
47523;SDS011;33253;42.144;25.884;2023-11-19T00:49:54;0.30;;;0.30;;
47523;SDS011;33253;42.144;25.884;2023-11-19T00:52:19;1.17;;;0.50;;
47523;SDS011;33253;42.144;25.884;2023-11-19T00:54:45;0.50;;;0.35;;
47523;SDS011;33253;42.144;25.884;2023-11-19T00:57:10;0.50;;;0.50;;
47523;SDS011;33253;42.144;25.884;2023-11-19T00:59:36;0.50;;;0.50;;
47523;SDS011;33253;42.144;25.884;2023-11-19T01:02:02;0.57;;;0.52;;
47523;SDS011;33253;42.144;25.884;2023-11-19T01:04:32;5.78;;;0.80;;
47523;SDS011;33253;42.144;25.884;2023-11-19T01:06:59;0.95;;;0.60;;
47523;SDS011;33253;42.144;25.884;2023-11-19T01:09:29;3.60;;;0.70;;
47523;SDS011;33253;42.144;25.884;2023-11-19T01:11:54;0.57;;;0.57;;
47523;SDS011;33253;42.144;25.884;2023-11-19T01:14:20;0.43;;;0.40;;
47523;SDS011;33253;42.144;25.884;2023-11-19T01:16:45;1.38;;;0.40;;
47523;SDS011;33253;42.144;25.884;2023-11-19T01:19:11;0.68;;;0.60;;
47523;SDS011;33253;42.144;25.884;2023-11-19T01:21:36;0.40;;;0.40;;
47523;SDS011;33253;42.144;25.884;2023-11-19T01:24:02;0.70;;;0.50;;
47523;SDS011;33253;42.144;25.884;2023-11-19T01:26:29;0.43;;;0.43;;
47523;SDS011;33253;42.144;25.884;2023-11-19T01:28:54;0.47;;;0.40;;
47523;SDS011;33253;42.144;25.884;2023-11-19T01:31:21;2.22;;;1.00;;
47523;SDS011;33253;42.144;25.884;2023-11-19T01:36:46;0.68;;;0.52;;
47523;SDS011;33253;42.144;25.884;2023-11-19T01:39:13;0.40;;;0.40;;
47523;SDS011;33253;42.144;25.884;2023-11-19T01:41:41;0.73;;;0.60;;
47523;SDS011;33253;42.144;25.884;2023-11-19T01:44:07;0.30;;;0.30;;
47523;SDS011;33253;42.144;25.884;2023-11-19T01:46:32;1.45;;;0.63;;
47523;SDS011;33253;42.144;25.884;2023-11-19T01:48:58;0.40;;;0.40;;
47523;SDS011;33253;42.144;25.884;2023-11-19T01:51:24;1.60;;;0.75;;
47523;SDS011;33253;42.144;25.884;2023-11-19T01:53:50;0.40;;;0.40;;
47523;SDS011;33253;42.144;25.884;2023-11-19T01:56:16;0.40;;;0.40;;
47523;SDS011;33253;42.144;25.884;2023-11-19T01:58:43;0.68;;;0.68;;
47523;SDS011;33253;42.144;25.884;2023-11-19T02:01:10;1.58;;;0.60;;
47523;SDS011;33253;42.144;25.884;2023-11-19T02:03:36;1.63;;;0.70;;
47523;SDS011;33253;42.144;25.884;2023-11-19T02:06:02;0.90;;;0.50;;
47523;SDS011;33253;42.144;25.884;2023-11-19T02:08:29;0.80;;;0.60;;
47523;SDS011;33253;42.144;25.884;2023-11-19T02:10:55;0.80;;;0.60;;
47523;SDS011;33253;42.144;25.884;2023-11-19T02:13:23;0.50;;;0.50;;
47523;SDS011;33253;42.144;25.884;2023-11-19T02:15:50;0.50;;;0.50;;
47523;SDS011;33253;42.144;25.884;2023-11-19T02:18:26;0.63;;;0.60;;
47523;SDS011;33253;42.144;25.884;2023-11-19T02:20:56;0.70;;;0.70;;
47523;SDS011;33253;42.144;25.884;2023-11-19T02:23:22;0.73;;;0.60;;
47523;SDS011;33253;42.144;25.884;2023-11-19T02:28:48;1.25;;;0.90;;
47523;SDS011;33253;42.144;25.884;2023-11-19T02:31:15;1.30;;;0.40;;
47523;SDS011;33253;42.144;25.884;2023-11-19T02:33:40;0.50;;;0.50;;
47523;SDS011;33253;42.144;25.884;2023-11-19T02:36:06;0.30;;;0.30;;
47523;SDS011;33253;42.144;25.884;2023-11-19T02:38:36;0.75;;;0.60;;
47523;SDS011;33253;42.144;25.884;2023-11-19T02:41:04;1.25;;;0.40;;
47523;SDS011;33253;42.144;25.884;2023-11-19T02:43:34;0.63;;;0.60;;
47523;SDS011;33253;42.144;25.884;2023-11-19T02:46:03;0.50;;;0.50;;
47523;SDS011;33253;42.144;25.884;2023-11-19T02:48:34;0.60;;;0.60;;
47523;SDS011;33253;42.144;25.884;2023-11-19T02:51:03;0.30;;;0.30;;
47523;SDS011;33253;42.144;25.884;2023-11-19T02:53:30;1.63;;;0.47;;
47523;SDS011;33253;42.144;25.884;2023-11-19T02:55:56;0.30;;;0.30;;
47523;SDS011;33253;42.144;25.884;2023-11-19T02:58:27;0.98;;;0.60;;
47523;SDS011;33253;42.144;25.884;2023-11-19T03:00:54;2.13;;;0.52;;
47523;SDS011;33253;42.144;25.884;2023-11-19T03:03:25;0.50;;;0.50;;
47523;SDS011;33253;42.144;25.884;2023-11-19T03:06:03;0.57;;;0.57;;
47523;SDS011;33253;42.144;25.884;2023-11-19T03:08:30;0.60;;;0.60;;
47523;SDS011;33253;42.144;25.884;2023-11-19T03:10:55;1.40;;;0.60;;
47523;SDS011;33253;42.144;25.884;2023-11-19T03:13:20;0.73;;;0.60;;
47523;SDS011;33253;42.144;25.884;2023-11-19T03:15:47;1.17;;;0.50;;
47523;SDS011;33253;42.144;25.884;2023-11-19T03:18:12;0.50;;;0.50;;
47523;SDS011;33253;42.144;25.884;2023-11-19T03:20:38;1.17;;;0.50;;
47523;SDS011;33253;42.144;25.884;2023-11-19T03:23:03;0.73;;;0.50;;
47523;SDS011;33253;42.144;25.884;2023-11-19T03:25:28;0.73;;;0.57;;
47523;SDS011;33253;42.144;25.884;2023-11-19T03:28:01;0.95;;;0.60;;
47523;SDS011;33253;42.144;25.884;2023-11-19T03:30:28;0.38;;;0.38;;
47523;SDS011;33253;42.144;25.884;2023-11-19T03:32:57;0.43;;;0.43;;
47523;SDS011;33253;42.144;25.884;2023-11-19T03:35:23;4.22;;;0.40;;
47523;SDS011;33253;42.144;25.884;2023-11-19T03:37:49;0.32;;;0.32;;
47523;SDS011;33253;42.144;25.884;2023-11-19T03:40:16;1.08;;;0.60;;
47523;SDS011;33253;42.144;25.884;2023-11-19T03:42:42;0.50;;;0.50;;
47523;SDS011;33253;42.144;25.884;2023-11-19T03:45:08;0.40;;;0.40;;
47523;SDS011;33253;42.144;25.884;2023-11-19T03:47:34;0.38;;;0.38;;
47523;SDS011;33253;42.144;25.884;2023-11-19T03:50:00;0.38;;;0.38;;
47523;SDS011;33253;42.144;25.884;2023-11-19T03:52:27;0.60;;;0.57;;
47523;SDS011;33253;42.144;25.884;2023-11-19T03:54:53;0.45;;;0.45;;
47523;SDS011;33253;42.144;25.884;2023-11-19T03:57:20;0.40;;;0.40;;
47523;SDS011;33253;42.144;25.884;2023-11-19T03:59:45;0.93;;;0.50;;
47523;SDS011;33253;42.144;25.884;2023-11-19T04:02:31;0.47;;;0.47;;
47523;SDS011;33253;42.144;25.884;2023-11-19T04:04:56;1.92;;;0.98;;
47523;SDS011;33253;42.144;25.884;2023-11-19T04:07:22;1.02;;;0.50;;
47523;SDS011;33253;42.144;25.884;2023-11-19T04:09:47;0.40;;;0.40;;
47523;SDS011;33253;42.144;25.884;2023-11-19T04:12:13;0.50;;;0.50;;
47523;SDS011;33253;42.144;25.884;2023-11-19T04:14:38;0.50;;;0.50;;
47523;SDS011;33253;42.144;25.884;2023-11-19T04:17:05;0.80;;;0.60;;
47523;SDS011;33253;42.144;25.884;2023-11-19T04:19:30;0.63;;;0.57;;
47523;SDS011;33253;42.144;25.884;2023-11-19T04:21:57;0.68;;;0.68;;
47523;SDS011;33253;42.144;25.884;2023-11-19T04:24:23;1.52;;;0.90;;
47523;SDS011;33253;42.144;25.884;2023-11-19T04:26:49;1.33;;;1.23;;
47523;SDS011;33253;42.144;25.884;2023-11-19T04:29:15;1.33;;;0.80;;
47523;SDS011;33253;42.144;25.884;2023-11-19T04:34:10;0.70;;;0.70;;
47523;SDS011;33253;42.144;25.884;2023-11-19T04:36:36;0.95;;;0.75;;
47523;SDS011;33253;42.144;25.884;2023-11-19T04:39:03;1.10;;;0.90;;
47523;SDS011;33253;42.144;25.884;2023-11-19T04:41:46;0.95;;;0.90;;
47523;SDS011;33253;42.144;25.884;2023-11-19T04:44:17;0.90;;;0.88;;
47523;SDS011;33253;42.144;25.884;2023-11-19T04:46:42;1.80;;;0.98;;
47523;SDS011;33253;42.144;25.884;2023-11-19T04:49:09;1.60;;;0.88;;
47523;SDS011;33253;42.144;25.884;2023-11-19T04:51:41;2.35;;;1.40;;
47523;SDS011;33253;42.144;25.884;2023-11-19T04:54:10;1.08;;;0.90;;
47523;SDS011;33253;42.144;25.884;2023-11-19T04:56:44;1.00;;;0.77;;
47523;SDS011;33253;42.144;25.884;2023-11-19T04:59:11;2.92;;;1.27;;
47523;SDS011;33253;42.144;25.884;2023-11-19T05:01:36;1.10;;;0.98;;
47523;SDS011;33253;42.144;25.884;2023-11-19T05:04:02;1.88;;;1.00;;
47523;SDS011;33253;42.144;25.884;2023-11-19T05:06:29;2.35;;;1.02;;
47523;SDS011;33253;42.144;25.884;2023-11-19T05:08:56;3.10;;;0.90;;
47523;SDS011;33253;42.144;25.884;2023-11-19T05:11:22;2.60;;;0.95;;
47523;SDS011;33253;42.144;25.884;2023-11-19T05:13:48;1.13;;;0.90;;
47523;SDS011;33253;42.144;25.884;2023-11-19T05:16:13;2.20;;;1.45;;
47523;SDS011;33253;42.144;25.884;2023-11-19T05:18:40;1.88;;;1.02;;
47523;SDS011;33253;42.144;25.884;2023-11-19T05:21:06;3.42;;;1.05;;
47523;SDS011;33253;42.144;25.884;2023-11-19T05:23:32;1.83;;;1.25;;
47523;SDS011;33253;42.144;25.884;2023-11-19T05:25:59;2.50;;;1.50;;
47523;SDS011;33253;42.144;25.884;2023-11-19T05:28:25;2.08;;;1.10;;
47523;SDS011;33253;42.144;25.884;2023-11-19T05:30:51;1.63;;;1.20;;
47523;SDS011;33253;42.144;25.884;2023-11-19T05:33:16;3.90;;;1.33;;
47523;SDS011;33253;42.144;25.884;2023-11-19T05:35:42;2.05;;;1.45;;
47523;SDS011;33253;42.144;25.884;2023-11-19T05:38:08;1.27;;;1.10;;
47523;SDS011;33253;42.144;25.884;2023-11-19T05:40:34;2.45;;;1.05;;
47523;SDS011;33253;42.144;25.884;2023-11-19T05:43:00;1.98;;;1.15;;
47523;SDS011;33253;42.144;25.884;2023-11-19T05:45:26;1.25;;;1.00;;
47523;SDS011;33253;42.144;25.884;2023-11-19T05:47:52;3.45;;;1.38;;
47523;SDS011;33253;42.144;25.884;2023-11-19T05:50:18;1.65;;;1.27;;
47523;SDS011;33253;42.144;25.884;2023-11-19T05:52:43;2.80;;;1.52;;
47523;SDS011;33253;42.144;25.884;2023-11-19T05:55:09;3.03;;;1.65;;
47523;SDS011;33253;42.144;25.884;2023-11-19T05:57:36;2.38;;;1.30;;
47523;SDS011;33253;42.144;25.884;2023-11-19T06:00:02;1.70;;;1.20;;
47523;SDS011;33253;42.144;25.884;2023-11-19T06:02:32;1.58;;;1.20;;
47523;SDS011;33253;42.144;25.884;2023-11-19T06:04:58;2.30;;;1.38;;
47523;SDS011;33253;42.144;25.884;2023-11-19T06:07:24;1.98;;;1.30;;
47523;SDS011;33253;42.144;25.884;2023-11-19T06:09:50;5.22;;;1.63;;
47523;SDS011;33253;42.144;25.884;2023-11-19T06:12:15;3.80;;;1.10;;
47523;SDS011;33253;42.144;25.884;2023-11-19T06:14:41;2.20;;;1.27;;
47523;SDS011;33253;42.144;25.884;2023-11-19T06:17:06;5.25;;;1.42;;
47523;SDS011;33253;42.144;25.884;2023-11-19T06:19:33;2.35;;;1.60;;
47523;SDS011;33253;42.144;25.884;2023-11-19T06:21:59;1.80;;;1.40;;
47523;SDS011;33253;42.144;25.884;2023-11-19T06:24:24;9.02;;;2.38;;
47523;SDS011;33253;42.144;25.884;2023-11-19T06:26:50;1.88;;;1.15;;
47523;SDS011;33253;42.144;25.884;2023-11-19T06:29:15;1.75;;;1.20;;
47523;SDS011;33253;42.144;25.884;2023-11-19T06:31:44;2.25;;;1.65;;
47523;SDS011;33253;42.144;25.884;2023-11-19T06:34:10;2.28;;;1.40;;
47523;SDS011;33253;42.144;25.884;2023-11-19T06:36:36;1.95;;;1.40;;
47523;SDS011;33253;42.144;25.884;2023-11-19T06:39:01;3.67;;;1.60;;
47523;SDS011;33253;42.144;25.884;2023-11-19T06:41:27;4.00;;;2.13;;
47523;SDS011;33253;42.144;25.884;2023-11-19T06:43:54;8.52;;;2.00;;
47523;SDS011;33253;42.144;25.884;2023-11-19T06:46:19;3.22;;;1.50;;
47523;SDS011;33253;42.144;25.884;2023-11-19T06:48:45;2.67;;;1.55;;
47523;SDS011;33253;42.144;25.884;2023-11-19T06:51:11;2.00;;;1.40;;
47523;SDS011;33253;42.144;25.884;2023-11-19T06:53:37;2.60;;;1.70;;
47523;SDS011;33253;42.144;25.884;2023-11-19T06:56:05;2.15;;;1.33;;
47523;SDS011;33253;42.144;25.884;2023-11-19T06:58:38;1.67;;;1.30;;
47523;SDS011;33253;42.144;25.884;2023-11-19T07:01:06;3.28;;;1.58;;
47523;SDS011;33253;42.144;25.884;2023-11-19T07:03:33;3.60;;;2.00;;
47523;SDS011;33253;42.144;25.884;2023-11-19T07:06:00;2.92;;;1.80;;
47523;SDS011;33253;42.144;25.884;2023-11-19T07:08:25;2.83;;;1.80;;
47523;SDS011;33253;42.144;25.884;2023-11-19T07:10:51;3.38;;;1.65;;
47523;SDS011;33253;42.144;25.884;2023-11-19T07:13:17;7.07;;;2.13;;
47523;SDS011;33253;42.144;25.884;2023-11-19T07:15:44;4.25;;;2.20;;
47523;SDS011;33253;42.144;25.884;2023-11-19T07:18:09;3.90;;;2.10;;
47523;SDS011;33253;42.144;25.884;2023-11-19T07:20:36;3.35;;;1.75;;
47523;SDS011;33253;42.144;25.884;2023-11-19T07:23:05;3.45;;;1.73;;
47523;SDS011;33253;42.144;25.884;2023-11-19T07:25:31;2.55;;;1.50;;
47523;SDS011;33253;42.144;25.884;2023-11-19T07:27:56;2.33;;;0.88;;
47523;SDS011;33253;42.144;25.884;2023-11-19T07:30:23;1.85;;;1.10;;
47523;SDS011;33253;42.144;25.884;2023-11-19T07:32:48;2.85;;;1.30;;
47523;SDS011;33253;42.144;25.884;2023-11-19T07:35:14;3.65;;;1.40;;
47523;SDS011;33253;42.144;25.884;2023-11-19T07:37:41;1.98;;;1.27;;
47523;SDS011;33253;42.144;25.884;2023-11-19T07:40:07;4.45;;;1.90;;
47523;SDS011;33253;42.144;25.884;2023-11-19T07:42:33;1.33;;;1.10;;
47523;SDS011;33253;42.144;25.884;2023-11-19T07:44:58;4.18;;;1.00;;
47523;SDS011;33253;42.144;25.884;2023-11-19T07:47:24;6.65;;;1.80;;
47523;SDS011;33253;42.144;25.884;2023-11-19T07:49:50;4.85;;;1.92;;
47523;SDS011;33253;42.144;25.884;2023-11-19T07:52:16;5.43;;;1.60;;
47523;SDS011;33253;42.144;25.884;2023-11-19T07:54:41;2.05;;;1.40;;
47523;SDS011;33253;42.144;25.884;2023-11-19T07:57:07;2.10;;;1.50;;
47523;SDS011;33253;42.144;25.884;2023-11-19T07:59:32;3.85;;;1.52;;
47523;SDS011;33253;42.144;25.884;2023-11-19T08:01:59;1.67;;;1.58;;
47523;SDS011;33253;42.144;25.884;2023-11-19T08:04:24;1.63;;;1.40;;
47523;SDS011;33253;42.144;25.884;2023-11-19T08:06:50;3.17;;;1.35;;
47523;SDS011;33253;42.144;25.884;2023-11-19T08:09:16;1.80;;;1.40;;
47523;SDS011;33253;42.144;25.884;2023-11-19T08:11:41;4.25;;;1.60;;
47523;SDS011;33253;42.144;25.884;2023-11-19T08:14:07;3.38;;;1.52;;
47523;SDS011;33253;42.144;25.884;2023-11-19T08:16:33;2.78;;;1.60;;
47523;SDS011;33253;42.144;25.884;2023-11-19T08:18:59;3.08;;;1.80;;
47523;SDS011;33253;42.144;25.884;2023-11-19T08:21:24;2.15;;;1.55;;
47523;SDS011;33253;42.144;25.884;2023-11-19T08:23:52;2.33;;;1.65;;
47523;SDS011;33253;42.144;25.884;2023-11-19T08:26:17;3.60;;;1.80;;
47523;SDS011;33253;42.144;25.884;2023-11-19T08:28:43;2.60;;;1.70;;
47523;SDS011;33253;42.144;25.884;2023-11-19T08:31:08;2.53;;;1.48;;
47523;SDS011;33253;42.144;25.884;2023-11-19T08:33:35;3.05;;;1.95;;
47523;SDS011;33253;42.144;25.884;2023-11-19T08:36:00;2.72;;;1.83;;
47523;SDS011;33253;42.144;25.884;2023-11-19T08:38:26;2.90;;;1.38;;
47523;SDS011;33253;42.144;25.884;2023-11-19T08:40:51;2.80;;;1.50;;
47523;SDS011;33253;42.144;25.884;2023-11-19T08:43:17;2.17;;;1.30;;
47523;SDS011;33253;42.144;25.884;2023-11-19T08:45:42;3.35;;;1.60;;
47523;SDS011;33253;42.144;25.884;2023-11-19T08:48:10;2.58;;;1.40;;
47523;SDS011;33253;42.144;25.884;2023-11-19T08:50:35;2.05;;;1.50;;
47523;SDS011;33253;42.144;25.884;2023-11-19T08:53:01;2.17;;;1.33;;
47523;SDS011;33253;42.144;25.884;2023-11-19T08:55:26;1.45;;;1.25;;
47523;SDS011;33253;42.144;25.884;2023-11-19T08:57:52;0.80;;;0.80;;
47523;SDS011;33253;42.144;25.884;2023-11-19T09:00:17;2.45;;;1.05;;
47523;SDS011;33253;42.144;25.884;2023-11-19T09:02:43;2.15;;;1.25;;
47523;SDS011;33253;42.144;25.884;2023-11-19T09:05:10;1.90;;;1.10;;
47523;SDS011;33253;42.144;25.884;2023-11-19T09:07:35;2.15;;;0.80;;
47523;SDS011;33253;42.144;25.884;2023-11-19T09:10:00;1.13;;;1.02;;
47523;SDS011;33253;42.144;25.884;2023-11-19T09:12:26;1.30;;;1.17;;
47523;SDS011;33253;42.144;25.884;2023-11-19T09:14:52;1.75;;;1.10;;
47523;SDS011;33253;42.144;25.884;2023-11-19T09:17:17;4.20;;;2.20;;
47523;SDS011;33253;42.144;25.884;2023-11-19T09:19:43;2.70;;;1.42;;
47523;SDS011;33253;42.144;25.884;2023-11-19T09:22:09;1.65;;;1.17;;
47523;SDS011;33253;42.144;25.884;2023-11-19T09:24:34;1.40;;;1.13;;
47523;SDS011;33253;42.144;25.884;2023-11-19T09:27:01;1.38;;;1.10;;
47523;SDS011;33253;42.144;25.884;2023-11-19T09:29:26;2.15;;;1.20;;
47523;SDS011;33253;42.144;25.884;2023-11-19T09:31:52;3.13;;;1.20;;
47523;SDS011;33253;42.144;25.884;2023-11-19T09:34:17;1.60;;;1.00;;
47523;SDS011;33253;42.144;25.884;2023-11-19T09:36:43;6.03;;;1.70;;
47523;SDS011;33253;42.144;25.884;2023-11-19T09:39:12;1.25;;;1.00;;
47523;SDS011;33253;42.144;25.884;2023-11-19T09:41:42;3.50;;;1.63;;
47523;SDS011;33253;42.144;25.884;2023-11-19T09:44:10;2.75;;;1.50;;
47523;SDS011;33253;42.144;25.884;2023-11-19T09:46:37;1.27;;;1.02;;
47523;SDS011;33253;42.144;25.884;2023-11-19T09:49:04;2.33;;;1.10;;
47523;SDS011;33253;42.144;25.884;2023-11-19T09:51:32;2.42;;;1.35;;
47523;SDS011;33253;42.144;25.884;2023-11-19T09:53:58;2.30;;;1.10;;
47523;SDS011;33253;42.144;25.884;2023-11-19T09:56:23;1.98;;;1.27;;
47523;SDS011;33253;42.144;25.884;2023-11-19T09:58:49;1.50;;;1.20;;
47523;SDS011;33253;42.144;25.884;2023-11-19T10:01:14;1.60;;;1.13;;
47523;SDS011;33253;42.144;25.884;2023-11-19T10:03:40;1.27;;;0.98;;
47523;SDS011;33253;42.144;25.884;2023-11-19T10:06:09;4.35;;;1.30;;
47523;SDS011;33253;42.144;25.884;2023-11-19T10:08:40;1.52;;;1.20;;
47523;SDS011;33253;42.144;25.884;2023-11-19T10:11:07;1.50;;;1.00;;
47523;SDS011;33253;42.144;25.884;2023-11-19T10:13:36;2.85;;;1.30;;
47523;SDS011;33253;42.144;25.884;2023-11-19T10:18:37;2.47;;;1.65;;
47523;SDS011;33253;42.144;25.884;2023-11-19T10:21:10;1.92;;;1.40;;
47523;SDS011;33253;42.144;25.884;2023-11-19T10:26:22;3.22;;;1.40;;
47523;SDS011;33253;42.144;25.884;2023-11-19T10:28:48;2.67;;;1.60;;
47523;SDS011;33253;42.144;25.884;2023-11-19T10:31:14;1.58;;;1.05;;
47523;SDS011;33253;42.144;25.884;2023-11-19T10:33:40;2.67;;;1.70;;
47523;SDS011;33253;42.144;25.884;2023-11-19T10:36:06;4.32;;;1.13;;
47523;SDS011;33253;42.144;25.884;2023-11-19T10:38:32;2.33;;;1.35;;
47523;SDS011;33253;42.144;25.884;2023-11-19T10:40:58;1.55;;;1.17;;
47523;SDS011;33253;42.144;25.884;2023-11-19T10:43:24;2.47;;;1.35;;
47523;SDS011;33253;42.144;25.884;2023-11-19T10:46:10;24.00;;;3.10;;
47523;SDS011;33253;42.144;25.884;2023-11-19T10:48:36;9.30;;;1.15;;
47523;SDS011;33253;42.144;25.884;2023-11-19T10:51:04;18.30;;;2.35;;
47523;SDS011;33253;42.144;25.884;2023-11-19T10:53:33;1.88;;;1.20;;
47523;SDS011;33253;42.144;25.884;2023-11-19T10:58:30;1.63;;;1.00;;
47523;SDS011;33253;42.144;25.884;2023-11-19T11:01:01;4.00;;;1.47;;
47523;SDS011;33253;42.144;25.884;2023-11-19T11:03:31;2.00;;;1.10;;
47523;SDS011;33253;42.144;25.884;2023-11-19T11:06:04;7.18;;;3.22;;
47523;SDS011;33253;42.144;25.884;2023-11-19T11:08:50;3.50;;;1.50;;
47523;SDS011;33253;42.144;25.884;2023-11-19T11:11:16;5.07;;;1.60;;
47523;SDS011;33253;42.144;25.884;2023-11-19T11:13:42;3.83;;;2.08;;
47523;SDS011;33253;42.144;25.884;2023-11-19T11:16:08;4.25;;;2.00;;
47523;SDS011;33253;42.144;25.884;2023-11-19T11:18:34;2.97;;;1.70;;
47523;SDS011;33253;42.144;25.884;2023-11-19T11:21:03;1.90;;;1.30;;
47523;SDS011;33253;42.144;25.884;2023-11-19T11:26:29;7.25;;;1.50;;
47523;SDS011;33253;42.144;25.884;2023-11-19T11:29:14;2.38;;;1.30;;
47523;SDS011;33253;42.144;25.884;2023-11-19T11:32:01;2.17;;;1.65;;
47523;SDS011;33253;42.144;25.884;2023-11-19T11:37:42;1.67;;;1.30;;
47523;SDS011;33253;42.144;25.884;2023-11-19T11:40:17;2.65;;;1.48;;
47523;SDS011;33253;42.144;25.884;2023-11-19T11:42:49;2.95;;;1.65;;
47523;SDS011;33253;42.144;25.884;2023-11-19T11:45:16;3.33;;;1.52;;
47523;SDS011;33253;42.144;25.884;2023-11-19T11:55:33;7.15;;;1.95;;
47523;SDS011;33253;42.144;25.884;2023-11-19T12:00:30;5.47;;;1.70;;
47523;SDS011;33253;42.144;25.884;2023-11-19T12:03:04;4.88;;;1.75;;
47523;SDS011;33253;42.144;25.884;2023-11-19T12:05:31;3.65;;;1.50;;
47523;SDS011;33253;42.144;25.884;2023-11-19T12:08:03;4.63;;;1.90;;
47523;SDS011;33253;42.144;25.884;2023-11-19T12:10:32;3.13;;;1.98;;
47523;SDS011;33253;42.144;25.884;2023-11-19T12:13:18;2.20;;;1.50;;
47523;SDS011;33253;42.144;25.884;2023-11-19T12:18:23;3.15;;;1.83;;
47523;SDS011;33253;42.144;25.884;2023-11-19T12:20:49;2.58;;;1.40;;
47523;SDS011;33253;42.144;25.884;2023-11-19T12:23:15;3.00;;;1.88;;
47523;SDS011;33253;42.144;25.884;2023-11-19T12:25:40;3.25;;;1.73;;
47523;SDS011;33253;42.144;25.884;2023-11-19T12:28:11;1.65;;;1.55;;
47523;SDS011;33253;42.144;25.884;2023-11-19T12:30:38;4.82;;;2.10;;
47523;SDS011;33253;42.144;25.884;2023-11-19T12:33:07;4.22;;;1.60;;
47523;SDS011;33253;42.144;25.884;2023-11-19T12:38:05;2.33;;;1.63;;
47523;SDS011;33253;42.144;25.884;2023-11-19T12:40:31;2.00;;;1.40;;
47523;SDS011;33253;42.144;25.884;2023-11-19T12:42:57;3.10;;;1.80;;
47523;SDS011;33253;42.144;25.884;2023-11-19T12:45:24;4.70;;;2.05;;
47523;SDS011;33253;42.144;25.884;2023-11-19T12:47:49;3.10;;;1.80;;
47523;SDS011;33253;42.144;25.884;2023-11-19T12:50:17;2.95;;;1.20;;
47523;SDS011;33253;42.144;25.884;2023-11-19T12:52:54;3.58;;;1.98;;
47523;SDS011;33253;42.144;25.884;2023-11-19T12:55:25;2.97;;;1.85;;
47523;SDS011;33253;42.144;25.884;2023-11-19T12:57:54;3.72;;;1.85;;
47523;SDS011;33253;42.144;25.884;2023-11-19T13:00:21;2.58;;;1.90;;
47523;SDS011;33253;42.144;25.884;2023-11-19T13:02:54;4.32;;;1.70;;
47523;SDS011;33253;42.144;25.884;2023-11-19T13:08:03;8.52;;;1.90;;
47523;SDS011;33253;42.144;25.884;2023-11-19T13:13:13;10.65;;;3.70;;
47523;SDS011;33253;42.144;25.884;2023-11-19T13:15:39;4.07;;;2.47;;
47523;SDS011;33253;42.144;25.884;2023-11-19T13:18:05;45.22;;;25.85;;
47523;SDS011;33253;42.144;25.884;2023-11-19T13:20:31;12.50;;;10.30;;
47523;SDS011;33253;42.144;25.884;2023-11-19T13:22:58;3.70;;;2.38;;
47523;SDS011;33253;42.144;25.884;2023-11-19T13:25:32;4.30;;;3.50;;
47523;SDS011;33253;42.144;25.884;2023-11-19T13:27:57;3.63;;;2.50;;
47523;SDS011;33253;42.144;25.884;2023-11-19T13:30:24;6.50;;;3.55;;
47523;SDS011;33253;42.144;25.884;2023-11-19T13:32:50;2.90;;;2.10;;
47523;SDS011;33253;42.144;25.884;2023-11-19T13:35:16;4.68;;;2.58;;
47523;SDS011;33253;42.144;25.884;2023-11-19T13:37:43;9.43;;;2.50;;
47523;SDS011;33253;42.144;25.884;2023-11-19T13:40:10;3.80;;;2.10;;
47523;SDS011;33253;42.144;25.884;2023-11-19T13:42:40;4.07;;;2.40;;
47523;SDS011;33253;42.144;25.884;2023-11-19T13:45:09;2.35;;;1.92;;
47523;SDS011;33253;42.144;25.884;2023-11-19T13:47:37;3.67;;;2.65;;
47523;SDS011;33253;42.144;25.884;2023-11-19T13:50:10;5.32;;;2.60;;
47523;SDS011;33253;42.144;25.884;2023-11-19T13:52:40;4.53;;;2.22;;
47523;SDS011;33253;42.144;25.884;2023-11-19T13:55:08;4.13;;;2.22;;
47523;SDS011;33253;42.144;25.884;2023-11-19T13:57:38;3.55;;;2.50;;
47523;SDS011;33253;42.144;25.884;2023-11-19T14:02:45;2.95;;;2.15;;
47523;SDS011;33253;42.144;25.884;2023-11-19T14:05:12;4.28;;;2.60;;
47523;SDS011;33253;42.144;25.884;2023-11-19T14:07:38;3.92;;;2.20;;
47523;SDS011;33253;42.144;25.884;2023-11-19T14:10:05;3.53;;;2.33;;
47523;SDS011;33253;42.144;25.884;2023-11-19T14:12:32;4.65;;;2.38;;
47523;SDS011;33253;42.144;25.884;2023-11-19T14:14:58;4.55;;;3.13;;
47523;SDS011;33253;42.144;25.884;2023-11-19T14:17:30;7.45;;;4.20;;
47523;SDS011;33253;42.144;25.884;2023-11-19T14:19:57;12.45;;;5.22;;
47523;SDS011;33253;42.144;25.884;2023-11-19T14:22:23;12.18;;;4.88;;
47523;SDS011;33253;42.144;25.884;2023-11-19T14:24:48;16.50;;;8.52;;
47523;SDS011;33253;42.144;25.884;2023-11-19T14:27:14;12.27;;;5.38;;
47523;SDS011;33253;42.144;25.884;2023-11-19T14:29:59;18.80;;;6.90;;
47523;SDS011;33253;42.144;25.884;2023-11-19T14:32:28;13.13;;;5.38;;
47523;SDS011;33253;42.144;25.884;2023-11-19T14:34:53;31.88;;;14.40;;
47523;SDS011;33253;42.144;25.884;2023-11-19T14:37:20;12.43;;;5.70;;
47523;SDS011;33253;42.144;25.884;2023-11-19T14:39:46;21.52;;;10.10;;
47523;SDS011;33253;42.144;25.884;2023-11-19T14:42:12;21.45;;;8.60;;
47523;SDS011;33253;42.144;25.884;2023-11-19T14:44:39;12.18;;;5.80;;
47523;SDS011;33253;42.144;25.884;2023-11-19T14:47:04;12.77;;;7.13;;
47523;SDS011;33253;42.144;25.884;2023-11-19T14:49:31;11.95;;;5.93;;
47523;SDS011;33253;42.144;25.884;2023-11-19T14:51:57;13.90;;;5.97;;
47523;SDS011;33253;42.144;25.884;2023-11-19T14:54:22;14.85;;;8.05;;
47523;SDS011;33253;42.144;25.884;2023-11-19T14:56:49;20.83;;;10.82;;
47523;SDS011;33253;42.144;25.884;2023-11-19T14:59:14;5.30;;;3.55;;
47523;SDS011;33253;42.144;25.884;2023-11-19T15:01:40;6.93;;;4.10;;
47523;SDS011;33253;42.144;25.884;2023-11-19T15:04:05;7.93;;;4.70;;
47523;SDS011;33253;42.144;25.884;2023-11-19T15:06:31;6.55;;;3.38;;
47523;SDS011;33253;42.144;25.884;2023-11-19T15:08:58;5.93;;;3.97;;
47523;SDS011;33253;42.144;25.884;2023-11-19T15:11:24;7.35;;;4.30;;
47523;SDS011;33253;42.144;25.884;2023-11-19T15:13:49;6.85;;;4.97;;
47523;SDS011;33253;42.144;25.884;2023-11-19T15:16:14;9.80;;;4.05;;
47523;SDS011;33253;42.144;25.884;2023-11-19T15:18:46;7.90;;;3.97;;